sensor_id;sensor_type;location;lat;lon;timestamp;pressure;altitude;pressure_sealevel;temperature
81177;BMP280;74095;48.270;14.200;2024-03-08T00:00:15;98164.84;;;4.92
81177;BMP280;74095;48.270;14.200;2024-03-08T00:02:45;98189.41;;;5.14
81177;BMP280;74095;48.270;14.200;2024-03-08T00:05:11;98188.72;;;5.24
81177;BMP280;74095;48.270;14.200;2024-03-08T00:07:38;98183.91;;;4.94
81177;BMP280;74095;48.270;14.200;2024-03-08T00:10:05;98188.06;;;5.07
81177;BMP280;74095;48.270;14.200;2024-03-08T00:12:32;98185.03;;;4.98
81177;BMP280;74095;48.270;14.200;2024-03-08T00:14:58;98186.53;;;4.89
81177;BMP280;74095;48.270;14.200;2024-03-08T00:17:24;98183.75;;;5.01
81177;BMP280;74095;48.270;14.200;2024-03-08T00:19:50;98176.69;;;5.11
81177;BMP280;74095;48.270;14.200;2024-03-08T00:22:17;98169.56;;;5.12
81177;BMP280;74095;48.270;14.200;2024-03-08T00:24:43;98167.06;;;5.00
81177;BMP280;74095;48.270;14.200;2024-03-08T00:27:09;98179.72;;;4.98
81177;BMP280;74095;48.270;14.200;2024-03-08T00:29:35;98181.09;;;5.01
81177;BMP280;74095;48.270;14.200;2024-03-08T00:32:01;98169.66;;;4.95
81177;BMP280;74095;48.270;14.200;2024-03-08T00:34:27;98167.25;;;4.94
81177;BMP280;74095;48.270;14.200;2024-03-08T00:36:53;98163.44;;;5.06
81177;BMP280;74095;48.270;14.200;2024-03-08T00:39:19;98144.00;;;4.74
81177;BMP280;74095;48.270;14.200;2024-03-08T00:41:48;98167.31;;;4.77
81177;BMP280;74095;48.270;14.200;2024-03-08T00:44:14;98159.97;;;4.79
81177;BMP280;74095;48.270;14.200;2024-03-08T00:46:40;98149.47;;;4.62
81177;BMP280;74095;48.270;14.200;2024-03-08T00:49:06;98153.81;;;4.73
81177;BMP280;74095;48.270;14.200;2024-03-08T00:51:32;98142.97;;;4.75
81177;BMP280;74095;48.270;14.200;2024-03-08T00:53:58;98159.84;;;4.69
81177;BMP280;74095;48.270;14.200;2024-03-08T00:56:24;98148.97;;;4.65
81177;BMP280;74095;48.270;14.200;2024-03-08T00:58:50;98142.22;;;4.53
81177;BMP280;74095;48.270;14.200;2024-03-08T01:01:18;98138.56;;;4.59
81177;BMP280;74095;48.270;14.200;2024-03-08T01:03:45;98133.47;;;4.52
81177;BMP280;74095;48.270;14.200;2024-03-08T01:06:10;98142.75;;;4.55
81177;BMP280;74095;48.270;14.200;2024-03-08T01:08:37;98127.19;;;4.58
81177;BMP280;74095;48.270;14.200;2024-03-08T01:11:08;98123.97;;;4.29
81177;BMP280;74095;48.270;14.200;2024-03-08T01:13:34;98125.13;;;4.38
81177;BMP280;74095;48.270;14.200;2024-03-08T01:16:00;98134.53;;;4.29
81177;BMP280;74095;48.270;14.200;2024-03-08T01:18:26;98115.53;;;4.32
81177;BMP280;74095;48.270;14.200;2024-03-08T01:20:52;98113.97;;;4.36
81177;BMP280;74095;48.270;14.200;2024-03-08T01:23:18;98117.00;;;4.23
81177;BMP280;74095;48.270;14.200;2024-03-08T01:25:44;98107.72;;;4.43
81177;BMP280;74095;48.270;14.200;2024-03-08T01:28:10;98105.94;;;4.26
81177;BMP280;74095;48.270;14.200;2024-03-08T01:30:36;98112.59;;;4.51
81177;BMP280;74095;48.270;14.200;2024-03-08T01:33:03;98106.91;;;4.42
81177;BMP280;74095;48.270;14.200;2024-03-08T01:35:29;98098.31;;;4.30
81177;BMP280;74095;48.270;14.200;2024-03-08T01:37:55;98113.88;;;4.26
81177;BMP280;74095;48.270;14.200;2024-03-08T01:40:21;98083.06;;;4.15
81177;BMP280;74095;48.270;14.200;2024-03-08T01:42:48;98085.38;;;4.28
81177;BMP280;74095;48.270;14.200;2024-03-08T01:45:14;98091.53;;;4.12
81177;BMP280;74095;48.270;14.200;2024-03-08T01:47:40;98093.13;;;4.13
81177;BMP280;74095;48.270;14.200;2024-03-08T01:50:06;98094.16;;;4.12
81177;BMP280;74095;48.270;14.200;2024-03-08T01:52:33;98095.09;;;4.23
81177;BMP280;74095;48.270;14.200;2024-03-08T01:55:01;98090.34;;;4.25
81177;BMP280;74095;48.270;14.200;2024-03-08T01:57:28;98071.03;;;4.03
81177;BMP280;74095;48.270;14.200;2024-03-08T01:59:55;98073.81;;;3.91
81177;BMP280;74095;48.270;14.200;2024-03-08T02:02:21;98056.69;;;3.93
81177;BMP280;74095;48.270;14.200;2024-03-08T02:04:48;98068.59;;;3.96
81177;BMP280;74095;48.270;14.200;2024-03-08T02:07:14;98072.34;;;4.00
81177;BMP280;74095;48.270;14.200;2024-03-08T02:09:40;98071.22;;;3.96
81177;BMP280;74095;48.270;14.200;2024-03-08T02:12:07;98072.53;;;3.77
81177;BMP280;74095;48.270;14.200;2024-03-08T02:14:33;98054.22;;;3.87
81177;BMP280;74095;48.270;14.200;2024-03-08T02:17:02;98057.69;;;3.71
81177;BMP280;74095;48.270;14.200;2024-03-08T02:19:28;98062.75;;;3.94
81177;BMP280;74095;48.270;14.200;2024-03-08T02:21:55;98081.22;;;3.94
81177;BMP280;74095;48.270;14.200;2024-03-08T02:24:21;98056.38;;;3.73
81177;BMP280;74095;48.270;14.200;2024-03-08T02:26:49;98063.88;;;3.81
81177;BMP280;74095;48.270;14.200;2024-03-08T02:29:15;98049.97;;;3.86
81177;BMP280;74095;48.270;14.200;2024-03-08T02:31:41;98053.75;;;3.73
81177;BMP280;74095;48.270;14.200;2024-03-08T02:34:06;98057.72;;;3.76
81177;BMP280;74095;48.270;14.200;2024-03-08T02:36:32;98051.72;;;3.80
81177;BMP280;74095;48.270;14.200;2024-03-08T02:39:03;98043.81;;;3.80
81177;BMP280;74095;48.270;14.200;2024-03-08T02:41:31;98053.09;;;3.83
81177;BMP280;74095;48.270;14.200;2024-03-08T02:43:56;98039.66;;;3.84
81177;BMP280;74095;48.270;14.200;2024-03-08T02:46:22;98045.03;;;3.73
81177;BMP280;74095;48.270;14.200;2024-03-08T02:48:48;98049.34;;;3.79
81177;BMP280;74095;48.270;14.200;2024-03-08T02:51:14;98045.84;;;3.73
81177;BMP280;74095;48.270;14.200;2024-03-08T02:53:41;98045.69;;;3.80
81177;BMP280;74095;48.270;14.200;2024-03-08T02:56:08;98043.91;;;3.85
81177;BMP280;74095;48.270;14.200;2024-03-08T02:58:38;98046.81;;;3.67
81177;BMP280;74095;48.270;14.200;2024-03-08T03:01:04;98031.00;;;3.51
81177;BMP280;74095;48.270;14.200;2024-03-08T03:03:30;98056.97;;;3.59
81177;BMP280;74095;48.270;14.200;2024-03-08T03:05:56;98050.81;;;3.53
81177;BMP280;74095;48.270;14.200;2024-03-08T03:08:22;98051.59;;;3.54
81177;BMP280;74095;48.270;14.200;2024-03-08T03:10:48;98045.78;;;3.52
81177;BMP280;74095;48.270;14.200;2024-03-08T03:13:14;98049.69;;;3.49
81177;BMP280;74095;48.270;14.200;2024-03-08T03:15:40;98036.59;;;3.37
81177;BMP280;74095;48.270;14.200;2024-03-08T03:18:09;98052.91;;;3.34
81177;BMP280;74095;48.270;14.200;2024-03-08T03:20:35;98041.50;;;3.45
81177;BMP280;74095;48.270;14.200;2024-03-08T03:23:06;98047.56;;;3.46
81177;BMP280;74095;48.270;14.200;2024-03-08T03:25:34;98052.09;;;3.51
81177;BMP280;74095;48.270;14.200;2024-03-08T03:28:02;98029.28;;;3.39
81177;BMP280;74095;48.270;14.200;2024-03-08T03:30:28;98044.94;;;3.46
81177;BMP280;74095;48.270;14.200;2024-03-08T03:33:02;98065.25;;;3.45
81177;BMP280;74095;48.270;14.200;2024-03-08T03:35:32;98056.53;;;3.45
81177;BMP280;74095;48.270;14.200;2024-03-08T03:37:59;98004.50;;;3.07
81177;BMP280;74095;48.270;14.200;2024-03-08T03:40:34;98056.75;;;3.43
81177;BMP280;74095;48.270;14.200;2024-03-08T03:43:00;98058.84;;;3.41
81177;BMP280;74095;48.270;14.200;2024-03-08T03:45:27;98048.47;;;3.18
81177;BMP280;74095;48.270;14.200;2024-03-08T03:47:53;98040.88;;;3.22
81177;BMP280;74095;48.270;14.200;2024-03-08T03:50:19;98026.84;;;3.04
81177;BMP280;74095;48.270;14.200;2024-03-08T03:52:46;98036.88;;;3.19
81177;BMP280;74095;48.270;14.200;2024-03-08T03:55:13;98033.88;;;3.32
81177;BMP280;74095;48.270;14.200;2024-03-08T03:57:39;98048.31;;;3.41
81177;BMP280;74095;48.270;14.200;2024-03-08T04:00:06;98038.22;;;3.22
81177;BMP280;74095;48.270;14.200;2024-03-08T04:02:39;98006.56;;;3.38
81177;BMP280;74095;48.270;14.200;2024-03-08T04:05:07;98024.13;;;3.33
81177;BMP280;74095;48.270;14.200;2024-03-08T04:07:34;98029.09;;;3.29
81177;BMP280;74095;48.270;14.200;2024-03-08T04:10:03;98016.31;;;3.38
81177;BMP280;74095;48.270;14.200;2024-03-08T04:12:29;98012.88;;;3.37
81177;BMP280;74095;48.270;14.200;2024-03-08T04:14:56;98019.75;;;3.38
81177;BMP280;74095;48.270;14.200;2024-03-08T04:17:22;97991.22;;;3.35
81177;BMP280;74095;48.270;14.200;2024-03-08T04:19:50;98015.13;;;3.45
81177;BMP280;74095;48.270;14.200;2024-03-08T04:22:16;98008.41;;;3.38
81177;BMP280;74095;48.270;14.200;2024-03-08T04:24:45;98008.63;;;3.36
81177;BMP280;74095;48.270;14.200;2024-03-08T04:27:12;98000.41;;;3.33
81177;BMP280;74095;48.270;14.200;2024-03-08T04:29:40;97984.28;;;3.29
81177;BMP280;74095;48.270;14.200;2024-03-08T04:32:07;97981.50;;;3.19
81177;BMP280;74095;48.270;14.200;2024-03-08T04:34:34;97987.94;;;3.28
81177;BMP280;74095;48.270;14.200;2024-03-08T04:37:03;97982.75;;;3.33
81177;BMP280;74095;48.270;14.200;2024-03-08T04:39:31;97982.75;;;3.33
81177;BMP280;74095;48.270;14.200;2024-03-08T04:41:59;97986.25;;;3.22
81177;BMP280;74095;48.270;14.200;2024-03-08T04:44:29;97976.63;;;3.11
81177;BMP280;74095;48.270;14.200;2024-03-08T04:46:55;97980.03;;;3.28
81177;BMP280;74095;48.270;14.200;2024-03-08T04:49:21;97983.25;;;3.30
81177;BMP280;74095;48.270;14.200;2024-03-08T04:51:48;97991.03;;;3.25
81177;BMP280;74095;48.270;14.200;2024-03-08T04:54:14;97977.81;;;3.20
81177;BMP280;74095;48.270;14.200;2024-03-08T04:56:40;97972.53;;;3.20
81177;BMP280;74095;48.270;14.200;2024-03-08T04:59:06;97978.59;;;3.37
81177;BMP280;74095;48.270;14.200;2024-03-08T05:01:34;97987.88;;;3.23
81177;BMP280;74095;48.270;14.200;2024-03-08T05:04:03;97975.97;;;3.21
81177;BMP280;74095;48.270;14.200;2024-03-08T05:06:29;97993.94;;;3.24
81177;BMP280;74095;48.270;14.200;2024-03-08T05:08:56;97975.56;;;3.45
81177;BMP280;74095;48.270;14.200;2024-03-08T05:11:22;97967.16;;;3.32
81177;BMP280;74095;48.270;14.200;2024-03-08T05:13:47;97972.69;;;3.30
81177;BMP280;74095;48.270;14.200;2024-03-08T05:16:14;97965.16;;;3.22
81177;BMP280;74095;48.270;14.200;2024-03-08T05:18:41;97952.56;;;3.24
81177;BMP280;74095;48.270;14.200;2024-03-08T05:21:07;97978.44;;;3.44
81177;BMP280;74095;48.270;14.200;2024-03-08T05:23:35;97961.97;;;3.37
81177;BMP280;74095;48.270;14.200;2024-03-08T05:26:01;97977.63;;;3.43
81177;BMP280;74095;48.270;14.200;2024-03-08T05:28:26;97973.66;;;3.41
81177;BMP280;74095;48.270;14.200;2024-03-08T05:30:52;97974.13;;;3.38
81177;BMP280;74095;48.270;14.200;2024-03-08T05:33:18;97969.09;;;3.20
81177;BMP280;74095;48.270;14.200;2024-03-08T05:35:45;97985.19;;;3.18
81177;BMP280;74095;48.270;14.200;2024-03-08T05:38:11;97974.06;;;2.83
81177;BMP280;74095;48.270;14.200;2024-03-08T05:40:38;97979.25;;;3.11
81177;BMP280;74095;48.270;14.200;2024-03-08T05:43:04;97976.47;;;3.01
81177;BMP280;74095;48.270;14.200;2024-03-08T05:45:31;97976.06;;;2.92
81177;BMP280;74095;48.270;14.200;2024-03-08T05:47:57;97972.22;;;3.00
81177;BMP280;74095;48.270;14.200;2024-03-08T05:50:22;97981.97;;;2.99
81177;BMP280;74095;48.270;14.200;2024-03-08T05:52:48;97973.91;;;3.06
81177;BMP280;74095;48.270;14.200;2024-03-08T05:55:15;97974.78;;;3.12
81177;BMP280;74095;48.270;14.200;2024-03-08T05:57:41;97964.72;;;3.09
81177;BMP280;74095;48.270;14.200;2024-03-08T06:00:13;97982.28;;;3.20
81177;BMP280;74095;48.270;14.200;2024-03-08T06:02:41;97964.22;;;3.28
81177;BMP280;74095;48.270;14.200;2024-03-08T06:05:10;97986.25;;;3.39
81177;BMP280;74095;48.270;14.200;2024-03-08T06:07:37;97976.44;;;3.34
81177;BMP280;74095;48.270;14.200;2024-03-08T06:10:10;97983.19;;;3.09
81177;BMP280;74095;48.270;14.200;2024-03-08T06:12:36;97982.75;;;3.33
81177;BMP280;74095;48.270;14.200;2024-03-08T06:15:09;97976.25;;;3.19
81177;BMP280;74095;48.270;14.200;2024-03-08T06:17:36;97974.69;;;3.40
81177;BMP280;74095;48.270;14.200;2024-03-08T06:20:02;97970.69;;;3.59
81177;BMP280;74095;48.270;14.200;2024-03-08T06:22:29;97968.16;;;3.47
81177;BMP280;74095;48.270;14.200;2024-03-08T06:24:56;97963.44;;;3.49
81177;BMP280;74095;48.270;14.200;2024-03-08T06:27:22;97970.25;;;3.84
81177;BMP280;74095;48.270;14.200;2024-03-08T06:29:48;97966.72;;;4.00
81177;BMP280;74095;48.270;14.200;2024-03-08T06:32:14;97960.31;;;4.18
81177;BMP280;74095;48.270;14.200;2024-03-08T06:34:41;97950.91;;;4.00
81177;BMP280;74095;48.270;14.200;2024-03-08T06:37:07;97975.38;;;4.17
81177;BMP280;74095;48.270;14.200;2024-03-08T06:39:33;97955.91;;;4.23
81177;BMP280;74095;48.270;14.200;2024-03-08T06:42:00;97961.72;;;4.52
81177;BMP280;74095;48.270;14.200;2024-03-08T06:44:25;97950.41;;;4.57
81177;BMP280;74095;48.270;14.200;2024-03-08T06:46:52;97953.34;;;4.60
81177;BMP280;74095;48.270;14.200;2024-03-08T06:49:18;97954.06;;;4.51
81177;BMP280;74095;48.270;14.200;2024-03-08T06:51:43;97951.66;;;4.81
81177;BMP280;74095;48.270;14.200;2024-03-08T06:54:09;97975.03;;;4.94
81177;BMP280;74095;48.270;14.200;2024-03-08T06:56:35;97965.97;;;4.85
81177;BMP280;74095;48.270;14.200;2024-03-08T06:59:01;97957.81;;;4.92
81177;BMP280;74095;48.270;14.200;2024-03-08T07:01:30;97967.97;;;5.05
81177;BMP280;74095;48.270;14.200;2024-03-08T07:04:00;97951.97;;;5.26
81177;BMP280;74095;48.270;14.200;2024-03-08T07:06:30;97963.34;;;5.22
81177;BMP280;74095;48.270;14.200;2024-03-08T07:08:59;97958.47;;;5.51
81177;BMP280;74095;48.270;14.200;2024-03-08T07:11:25;97973.84;;;5.59
81177;BMP280;74095;48.270;14.200;2024-03-08T07:13:50;97955.47;;;5.37
81177;BMP280;74095;48.270;14.200;2024-03-08T07:16:16;97960.94;;;5.25
81177;BMP280;74095;48.270;14.200;2024-03-08T07:18:42;97950.41;;;5.30
81177;BMP280;74095;48.270;14.200;2024-03-08T07:21:11;97965.91;;;5.54
81177;BMP280;74095;48.270;14.200;2024-03-08T07:23:37;97952.44;;;5.18
81177;BMP280;74095;48.270;14.200;2024-03-08T07:26:26;97947.69;;;5.72
81177;BMP280;74095;48.270;14.200;2024-03-08T07:28:53;97941.34;;;5.78
81177;BMP280;74095;48.270;14.200;2024-03-08T07:31:21;97940.84;;;5.76
81177;BMP280;74095;48.270;14.200;2024-03-08T07:33:51;97923.13;;;5.92
81177;BMP280;74095;48.270;14.200;2024-03-08T07:36:16;97939.91;;;6.28
81177;BMP280;74095;48.270;14.200;2024-03-08T07:38:42;97937.22;;;6.23
81177;BMP280;74095;48.270;14.200;2024-03-08T07:41:09;97930.09;;;6.44
81177;BMP280;74095;48.270;14.200;2024-03-08T07:43:35;97926.09;;;6.56
81177;BMP280;74095;48.270;14.200;2024-03-08T07:46:01;97933.00;;;6.78
81177;BMP280;74095;48.270;14.200;2024-03-08T07:48:27;97926.34;;;6.95
81177;BMP280;74095;48.270;14.200;2024-03-08T07:50:53;97932.69;;;6.94
81177;BMP280;74095;48.270;14.200;2024-03-08T07:53:18;97939.09;;;6.68
81177;BMP280;74095;48.270;14.200;2024-03-08T07:55:44;97924.78;;;6.74
81177;BMP280;74095;48.270;14.200;2024-03-08T07:58:10;97924.25;;;6.82
81177;BMP280;74095;48.270;14.200;2024-03-08T08:00:36;97932.69;;;6.94
81177;BMP280;74095;48.270;14.200;2024-03-08T08:03:03;97921.09;;;6.24
81177;BMP280;74095;48.270;14.200;2024-03-08T08:05:30;97938.06;;;6.64
81177;BMP280;74095;48.270;14.200;2024-03-08T08:08:04;97917.88;;;6.73
81177;BMP280;74095;48.270;14.200;2024-03-08T08:10:32;97918.94;;;6.87
81177;BMP280;74095;48.270;14.200;2024-03-08T08:12:58;97930.47;;;7.42
81177;BMP280;74095;48.270;14.200;2024-03-08T08:15:24;97906.06;;;7.35
81177;BMP280;74095;48.270;14.200;2024-03-08T08:17:50;97910.81;;;7.48
81177;BMP280;74095;48.270;14.200;2024-03-08T08:20:17;97901.72;;;7.64
81177;BMP280;74095;48.270;14.200;2024-03-08T08:22:44;97893.50;;;7.99
81177;BMP280;74095;48.270;14.200;2024-03-08T08:25:10;97894.97;;;8.20
81177;BMP280;74095;48.270;14.200;2024-03-08T08:27:38;97885.06;;;7.92
81177;BMP280;74095;48.270;14.200;2024-03-08T08:30:11;97886.72;;;7.83
81177;BMP280;74095;48.270;14.200;2024-03-08T08:32:38;97900.78;;;8.23
81177;BMP280;74095;48.270;14.200;2024-03-08T08:35:08;97894.50;;;8.47
81177;BMP280;74095;48.270;14.200;2024-03-08T08:37:41;97903.47;;;8.80
81177;BMP280;74095;48.270;14.200;2024-03-08T08:40:08;97901.59;;;8.81
81177;BMP280;74095;48.270;14.200;2024-03-08T08:42:40;97886.31;;;8.91
81177;BMP280;74095;48.270;14.200;2024-03-08T08:45:07;97873.47;;;8.46
81177;BMP280;74095;48.270;14.200;2024-03-08T08:47:36;97887.00;;;8.78
81177;BMP280;74095;48.270;14.200;2024-03-08T08:50:03;97887.31;;;8.71
81177;BMP280;74095;48.270;14.200;2024-03-08T08:52:32;97860.66;;;9.00
81177;BMP280;74095;48.270;14.200;2024-03-08T08:54:58;97833.09;;;8.91
81177;BMP280;74095;48.270;14.200;2024-03-08T08:57:24;97850.41;;;9.12
81177;BMP280;74095;48.270;14.200;2024-03-08T08:59:50;97855.47;;;9.33
81177;BMP280;74095;48.270;14.200;2024-03-08T09:02:15;97849.44;;;9.03
81177;BMP280;74095;48.270;14.200;2024-03-08T09:04:42;97851.44;;;8.93
81177;BMP280;74095;48.270;14.200;2024-03-08T09:07:09;97864.78;;;9.11
81177;BMP280;74095;48.270;14.200;2024-03-08T09:09:36;97845.28;;;8.97
81177;BMP280;74095;48.270;14.200;2024-03-08T09:12:02;97851.31;;;8.79
81177;BMP280;74095;48.270;14.200;2024-03-08T09:14:27;97823.66;;;9.23
81177;BMP280;74095;48.270;14.200;2024-03-08T09:16:53;97847.56;;;9.65
81177;BMP280;74095;48.270;14.200;2024-03-08T09:19:19;97850.00;;;9.43
81177;BMP280;74095;48.270;14.200;2024-03-08T09:21:45;97836.38;;;8.83
81177;BMP280;74095;48.270;14.200;2024-03-08T09:24:11;97844.97;;;9.23
81177;BMP280;74095;48.270;14.200;2024-03-08T09:26:38;97838.88;;;8.98
81177;BMP280;74095;48.270;14.200;2024-03-08T09:29:06;97823.53;;;9.09
81177;BMP280;74095;48.270;14.200;2024-03-08T09:31:33;97842.72;;;9.48
81177;BMP280;74095;48.270;14.200;2024-03-08T09:33:59;97848.81;;;9.11
81177;BMP280;74095;48.270;14.200;2024-03-08T09:36:25;97834.03;;;9.24
81177;BMP280;74095;48.270;14.200;2024-03-08T09:38:51;97832.66;;;9.45
81177;BMP280;74095;48.270;14.200;2024-03-08T09:41:16;97816.66;;;9.64
81177;BMP280;74095;48.270;14.200;2024-03-08T09:43:43;97825.09;;;9.71
81177;BMP280;74095;48.270;14.200;2024-03-08T09:46:09;97826.09;;;9.38
81177;BMP280;74095;48.270;14.200;2024-03-08T09:48:36;97805.34;;;9.72
81177;BMP280;74095;48.270;14.200;2024-03-08T09:51:03;97829.94;;;10.01
81177;BMP280;74095;48.270;14.200;2024-03-08T09:53:30;97824.38;;;9.84
81177;BMP280;74095;48.270;14.200;2024-03-08T09:55:56;97820.28;;;10.05
81177;BMP280;74095;48.270;14.200;2024-03-08T09:58:22;97822.88;;;9.78
81177;BMP280;74095;48.270;14.200;2024-03-08T10:01:00;97805.59;;;9.89
81177;BMP280;74095;48.270;14.200;2024-03-08T10:03:30;97822.06;;;9.96
81177;BMP280;74095;48.270;14.200;2024-03-08T10:05:58;97779.44;;;9.91
81177;BMP280;74095;48.270;14.200;2024-03-08T10:08:27;97805.81;;;9.42
81177;BMP280;74095;48.270;14.200;2024-03-08T10:10:55;97810.78;;;9.67
81177;BMP280;74095;48.270;14.200;2024-03-08T10:13:25;97812.19;;;10.10
81177;BMP280;74095;48.270;14.200;2024-03-08T10:15:53;97768.31;;;10.03
81177;BMP280;74095;48.270;14.200;2024-03-08T10:18:19;97799.47;;;9.89
81177;BMP280;74095;48.270;14.200;2024-03-08T10:21:02;97811.91;;;10.12
81177;BMP280;74095;48.270;14.200;2024-03-08T10:23:30;97800.00;;;9.91
81177;BMP280;74095;48.270;14.200;2024-03-08T10:25:56;97789.13;;;9.87
81177;BMP280;74095;48.270;14.200;2024-03-08T10:28:24;97806.75;;;10.15
81177;BMP280;74095;48.270;14.200;2024-03-08T10:30:50;97790.88;;;10.10
81177;BMP280;74095;48.270;14.200;2024-03-08T10:33:16;97782.69;;;10.34
81177;BMP280;74095;48.270;14.200;2024-03-08T10:35:43;97794.59;;;10.09
81177;BMP280;74095;48.270;14.200;2024-03-08T10:38:15;97764.56;;;9.90
81177;BMP280;74095;48.270;14.200;2024-03-08T10:40:45;97780.28;;;10.19
81177;BMP280;74095;48.270;14.200;2024-03-08T10:43:20;97798.59;;;10.53
81177;BMP280;74095;48.270;14.200;2024-03-08T10:45:54;97765.75;;;10.93
81177;BMP280;74095;48.270;14.200;2024-03-08T10:48:31;97785.16;;;10.58
81177;BMP280;74095;48.270;14.200;2024-03-08T10:50:59;97762.72;;;10.86
81177;BMP280;74095;48.270;14.200;2024-03-08T10:53:28;97779.50;;;11.00
81177;BMP280;74095;48.270;14.200;2024-03-08T10:55:58;97786.94;;;10.90
81177;BMP280;74095;48.270;14.200;2024-03-08T10:58:25;97767.00;;;11.09
81177;BMP280;74095;48.270;14.200;2024-03-08T11:00:54;97768.94;;;10.95
81177;BMP280;74095;48.270;14.200;2024-03-08T11:06:14;97750.47;;;11.07
81177;BMP280;74095;48.270;14.200;2024-03-08T11:08:41;97757.81;;;10.39
81177;BMP280;74095;48.270;14.200;2024-03-08T11:11:24;97752.53;;;10.06
81177;BMP280;74095;48.270;14.200;2024-03-08T11:13:56;97740.97;;;9.97
81177;BMP280;74095;48.270;14.200;2024-03-08T11:18:58;97740.88;;;10.02
81177;BMP280;74095;48.270;14.200;2024-03-08T11:21:30;97720.56;;;10.34
81177;BMP280;74095;48.270;14.200;2024-03-08T11:24:06;97735.97;;;10.23
81177;BMP280;74095;48.270;14.200;2024-03-08T11:26:33;97689.84;;;10.22
81177;BMP280;74095;48.270;14.200;2024-03-08T11:32:16;97727.56;;;10.43
81177;BMP280;74095;48.270;14.200;2024-03-08T11:34:48;97736.56;;;10.34
81177;BMP280;74095;48.270;14.200;2024-03-08T11:37:17;97691.53;;;10.18
81177;BMP280;74095;48.270;14.200;2024-03-08T11:39:47;97709.28;;;10.64
81177;BMP280;74095;48.270;14.200;2024-03-08T11:42:17;97719.22;;;10.72
81177;BMP280;74095;48.270;14.200;2024-03-08T11:44:47;97690.16;;;10.84
81177;BMP280;74095;48.270;14.200;2024-03-08T11:47:14;97691.50;;;10.95
81177;BMP280;74095;48.270;14.200;2024-03-08T11:49:40;97683.13;;;10.74
81177;BMP280;74095;48.270;14.200;2024-03-08T11:52:15;97705.81;;;10.63
81177;BMP280;74095;48.270;14.200;2024-03-08T11:54:42;97674.81;;;10.40
81177;BMP280;74095;48.270;14.200;2024-03-08T11:57:11;97684.25;;;10.60
81177;BMP280;74095;48.270;14.200;2024-03-08T11:59:37;97676.94;;;10.52
81177;BMP280;74095;48.270;14.200;2024-03-08T12:02:06;97686.38;;;10.36
81177;BMP280;74095;48.270;14.200;2024-03-08T12:04:32;97692.50;;;9.95
81177;BMP280;74095;48.270;14.200;2024-03-08T12:07:02;97675.00;;;9.62
81177;BMP280;74095;48.270;14.200;2024-03-08T12:09:35;97669.28;;;10.23
81177;BMP280;74095;48.270;14.200;2024-03-08T12:12:02;97679.63;;;10.24
81177;BMP280;74095;48.270;14.200;2024-03-08T12:14:33;97674.50;;;10.42
81177;BMP280;74095;48.270;14.200;2024-03-08T12:16:59;97674.66;;;10.59
81177;BMP280;74095;48.270;14.200;2024-03-08T12:19:27;97659.50;;;10.46
81177;BMP280;74095;48.270;14.200;2024-03-08T12:21:54;97672.59;;;10.56
81177;BMP280;74095;48.270;14.200;2024-03-08T12:24:20;97661.25;;;10.64
81177;BMP280;74095;48.270;14.200;2024-03-08T12:26:47;97653.31;;;10.59
81177;BMP280;74095;48.270;14.200;2024-03-08T12:29:21;97663.31;;;10.67
81177;BMP280;74095;48.270;14.200;2024-03-08T12:31:58;97645.63;;;10.93
81177;BMP280;74095;48.270;14.200;2024-03-08T12:34:27;97655.09;;;10.99
81177;BMP280;74095;48.270;14.200;2024-03-08T12:36:54;97657.84;;;10.72
81177;BMP280;74095;48.270;14.200;2024-03-08T12:39:22;97648.53;;;10.83
81177;BMP280;74095;48.270;14.200;2024-03-08T12:41:51;97630.50;;;10.89
81177;BMP280;74095;48.270;14.200;2024-03-08T12:44:18;97640.28;;;10.93
81177;BMP280;74095;48.270;14.200;2024-03-08T12:46:44;97627.28;;;10.78
81177;BMP280;74095;48.270;14.200;2024-03-08T12:49:10;97642.88;;;10.62
81177;BMP280;74095;48.270;14.200;2024-03-08T12:51:38;97629.44;;;10.54
81177;BMP280;74095;48.270;14.200;2024-03-08T12:54:05;97635.41;;;10.23
81177;BMP280;74095;48.270;14.200;2024-03-08T12:56:34;97616.09;;;10.54
81177;BMP280;74095;48.270;14.200;2024-03-08T12:59:01;97625.44;;;11.01
81177;BMP280;74095;48.270;14.200;2024-03-08T13:01:27;97627.16;;;11.05
81177;BMP280;74095;48.270;14.200;2024-03-08T13:03:53;97610.75;;;11.20
81177;BMP280;74095;48.270;14.200;2024-03-08T13:06:21;97614.78;;;11.09
81177;BMP280;74095;48.270;14.200;2024-03-08T13:08:52;97587.03;;;11.19
81177;BMP280;74095;48.270;14.200;2024-03-08T13:11:19;97595.53;;;11.21
81177;BMP280;74095;48.270;14.200;2024-03-08T13:13:45;97607.19;;;10.81
81177;BMP280;74095;48.270;14.200;2024-03-08T13:16:12;97597.78;;;10.61
81177;BMP280;74095;48.270;14.200;2024-03-08T13:18:41;97604.16;;;10.73
81177;BMP280;74095;48.270;14.200;2024-03-08T13:21:10;97613.28;;;10.95
81177;BMP280;74095;48.270;14.200;2024-03-08T13:23:40;97588.91;;;10.74
81177;BMP280;74095;48.270;14.200;2024-03-08T13:26:09;97592.69;;;10.73
81177;BMP280;74095;48.270;14.200;2024-03-08T13:28:48;97597.91;;;10.56
81177;BMP280;74095;48.270;14.200;2024-03-08T13:31:22;97590.38;;;10.58
81177;BMP280;74095;48.270;14.200;2024-03-08T13:33:48;97606.78;;;10.87
81177;BMP280;74095;48.270;14.200;2024-03-08T13:36:14;97588.63;;;10.75
81177;BMP280;74095;48.270;14.200;2024-03-08T13:38:44;97593.44;;;11.09
81177;BMP280;74095;48.270;14.200;2024-03-08T13:41:11;97553.84;;;11.11
81177;BMP280;74095;48.270;14.200;2024-03-08T13:43:38;97601.06;;;11.24
81177;BMP280;74095;48.270;14.200;2024-03-08T13:46:05;97570.22;;;11.18
81177;BMP280;74095;48.270;14.200;2024-03-08T13:48:33;97572.34;;;11.08
81177;BMP280;74095;48.270;14.200;2024-03-08T13:50:59;97564.16;;;11.26
81177;BMP280;74095;48.270;14.200;2024-03-08T13:53:26;97566.53;;;11.06
81177;BMP280;74095;48.270;14.200;2024-03-08T13:55:52;97568.31;;;10.88
81177;BMP280;74095;48.270;14.200;2024-03-08T13:58:18;97551.13;;;11.03
81177;BMP280;74095;48.270;14.200;2024-03-08T14:00:46;97562.72;;;10.98
81177;BMP280;74095;48.270;14.200;2024-03-08T14:03:13;97539.50;;;11.07
81177;BMP280;74095;48.270;14.200;2024-03-08T14:05:40;97531.50;;;11.07
81177;BMP280;74095;48.270;14.200;2024-03-08T14:08:07;97539.09;;;11.53
81177;BMP280;74095;48.270;14.200;2024-03-08T14:10:34;97558.81;;;11.35
81177;BMP280;74095;48.270;14.200;2024-03-08T14:13:00;97555.34;;;11.35
81177;BMP280;74095;48.270;14.200;2024-03-08T14:15:28;97564.94;;;11.36